Vicksburg, Mississippi
Current Conditions -  °F | °C
As of 10:15 PM on Tuesday 21 Oct 2014 (Local Time) from KVKS Reporting Station
Overcast Overcast  
Wind Chill: 59°   Ceiling: 4400
Heat Index: 59°   Visibility: 7mi
Dew Point: 59°   Wind: 0mph
Humidity: 100%   Direction: NA
Pressure: 30.07"   Gusts: NA
Location:  32.35°N, 90.88°W
Report Text: KVKS 220315Z AUTO 00000KT 7SM FEW003 OVC044 15/15 A3007 RMK A01
Loading
Personal Weather Stations






























Interactive Weather Map New forecast layout! Learn more

10-Day Weather Forecast

Advertisements
Track Severe Weather on mobile